• Join FlightAware (Why Join?)
  • Login
  • US Flag 
03:12PM EDT


 

Airport Tracker/Info


-or-


 

Live Flight TrackerFlight Track Log ✈ N41502 ✈ 09-May-2013 ✈ KEWB - KEWB

Flight Track Log - Related Links

Times and Time Zones

All times are in EDT time to prevent confusion due to time zone crossing. See the N41502 flight status page for this flight to view local times or setup timezone preferences in your user account.

Time Position Orientation Groundspeed Altitude Reporting Facility
EDT Latitude Longitude Course Direction KTS MPH feet Rate Location/Type
11:27AM 41.6672 -70.9478 201° Southwest 87 100 600  Level Boston Center
11:28AM 41.6447 -70.9594 201° Southwest 109 125 1,600 720 Climbing Boston Center
11:29AM 41.6472 -70.9956 275° West 113 130 2,100 240 Climbing Boston Center
11:30AM 41.6747 -71.0281 319° Northwest 133 153 2,100  Level Boston Center
11:31AM 41.7042 -71.0553 325° Northwest 131 151 2,100  Level Boston Center
11:32AM 41.7336 -71.0825 325° Northwest 133 153 2,100  Level Boston Center
11:33AM 41.7611 -71.1153 318° Northwest 134 154 2,100  Level Boston Center
11:34AM 41.7722 -71.1625 288° West 131 151 2,100  Level Boston Center
11:35AM 41.7831 -71.2122 286° West 129 148 2,100 -60 Level Boston Center
11:36AM 41.8061 -71.2342 325° Northwest 129 148 2,000  Descending Boston Center
11:37AM 41.8331 -71.2031 41° Northeast 125 144 2,100  Climbing Boston Center
11:38AM 41.8600 -71.1858 25° Northeast 128 147 2,100  Level Boston Center
11:39AM 41.8792 -71.2272 302° West 123 142 2,100  Level Boston Center
11:40AM 41.8650 -71.2664 244° Southwest 119 137 2,100  Level Boston Center
11:41AM 41.8422 -71.2947 223° Southwest 107 123 2,100  Level Boston Center
11:42AM 41.8239 -71.3231 229° Southwest 96 110 2,100 -120 Level Boston Center
11:43AM 41.8053 -71.3456 222° Southwest 92 106 1,900 -600 Descending Boston Center
11:44AM 41.7825 -71.3683 217° Southwest 95 109 1,000 -600 Descending Boston Center
11:45AM 41.7661 -71.3908 226° Southwest 93 107 800 -300 Descending Boston Center
11:46AM 41.7456 -71.4106 216° Southwest 93 107 400 -180 Descending Boston Center
11:48AM 41.7164 -71.4361 213° Southwest 101 116 400 300 Level Boston Center
11:48AM 41.7019 -71.4475 210° Southwest 95 109 1,100 1,020 Climbing Boston Center
11:49AM 41.6892 -71.4169 119° Southeast 96 110 2,000 360 Climbing Boston Center
11:50AM 41.6722 -71.3811 122° Southeast 111 128 1,900  Descending Boston Center
11:52AM 41.6553 -71.3481 124° Southeast 112 129 2,000  Climbing Boston Center
11:53AM 41.6425 -71.3122 115° Southeast 110 127 2,000  Level Boston Center
11:54AM 41.6253 -71.2764 123° Southeast 115 132 2,000  Level Boston Center
11:55AM 41.6042 -71.2353 124° Southeast 132 152 2,000  Level Boston Center
11:56AM 41.5850 -71.1939 122° Southeast 125 144 2,000  Level Boston Center
11:57AM 41.5697 -71.1525 116° Southeast 118 136 2,000  Level Boston Center